Calistoga, CA

9:17 PM PDT on August 29, 2014 (GMT -0700)
Sonoma County | Change Station
CLOSE
Current Station
Airport
Location: Santa Rosa,
Elevation: 125 ft
Nearby Weather Stations

Elev 125 ft 38.50 °N, 122.81 °W | Updated 24 minutes ago

Clear
Clear
65 °F
Feels Like 65 °F
N
4
Wind Variable Wind from South

Today
High -- | Low -- °F
--% Chance of Precip.
Yesterday
High -- | Low -- °F
Precip. -- in
6:36 AM 7:44 PM
Waxing Crescent, 19% visible
Pressure 29.86 in
Visibility 10.0 miles
Clouds Clear
Dew Point 56 °F
Humidity 73%
Rainfall 0.00 in
Snow Depth Not available.
UV 0 out of 12
Pollen 8.60 out of 12
Air Quality Not available.
Flu Activity Not available.
METAR KSTS 300353Z AUTO 17003KT 10SM CLR 18/13 A2987 RMK AO2 SLP110 T01830133

More Conditions Fewer Conditions

Pressure 29.86 in
Visibility 10.0 miles
Clouds Clear
Dew Point 56 °F
Humidity 73%
Rainfall 0.00 in
Snow Depth Not available.
UV 0 out of 12
Pollen 8.60 out of 12
Air Quality Not available.
Flu Activity Not available.
METAR KSTS 300353Z AUTO 17003KT 10SM CLR 18/13 A2987 RMK AO2 SLP110 T01830133

More Conditions Fewer Conditions

10-Day Weather Forecast

Almanac

Astronomy

Aug. 29, 2014 Rise Set
Actual Time 6:36 AM PDT 7:44 PM PDT
Civil Twilight 6:09 AM PDT 8:11 PM PDT
Nautical Twilight 5:36 AM PDT 8:44 PM PDT
Astronomical Twilight 5:02 AM PDT 9:18 PM PDT
Moon 10:28 AM PDT (8/29) 9:48 PM PDT (8/29)
Length of Visible Light 14h 02m
Length of Day
13h 07m
Tomorrow will be 2m 23s shorter.
Waxing Crescent, 19% of the Moon is Illuminated
Aug 30
Waxing Crescent
Sep 2
First Quarter
Sep 8
Full
Sep 15
Last Quarter
Sep 24
New

Today's Extremes

State Highs State Lows

Community

WunderPhotos

Upload Photos

1,748,448 photos uploaded!

Nearby

Air Quality

  Air Quality AQ Index Pollutant
Friday Good
PM2.5
Saturday Good
PM2.5
Sunday Good
PM2.5
Monday Good
PM2.5
Tuesday Good
PM2.5
Wednesday Good
PM2.5

Snow Depth

Station Depth Elevation
CSS Lab 2 in 6900 ft
Echo Peak 0 in 7800 ft
Hagan's Meadow 0 in 8000 ft
Leavitt Meadows 0 in 7200 ft
Summit Meadow 0 in 9122 ft

Earthquake Activity

City Distance Mag. Time & Date
Ridgemark, California 147 miles 3.5 4:32 PM PDT
2014-08-29
The Geysers, California 21 miles 2.7 2:53 PM PDT
2014-08-29
Ridgemark, California 147 miles 3.0 2:44 PM PDT
2014-08-29
Napa, California 26 miles 2.6 11:57 AM PDT
2014-08-27
Minimum magnitude displayed is 2.5.

Coastal Water Temperatures

Place Temperature
No Stations Reporting

Nearby Weather Stations